sensor_id;sensor_type;location;lat;lon;timestamp;pressure;altitude;pressure_sealevel;temperature;humidity
12486;BME280;6307;46.804;11.580;2023-02-04T00:02:10;-21035.00;;;6.09;100.00
12486;BME280;6307;46.804;11.580;2023-02-04T00:04:37;-21037.25;;;6.16;100.00
12486;BME280;6307;46.804;11.580;2023-02-04T00:07:03;-21044.47;;;6.40;100.00
12486;BME280;6307;46.804;11.580;2023-02-04T00:09:29;-21039.81;;;6.25;100.00
12486;BME280;6307;46.804;11.580;2023-02-04T00:11:55;-21038.91;;;6.22;100.00
12486;BME280;6307;46.804;11.580;2023-02-04T00:14:22;-21048.84;;;6.55;100.00
12486;BME280;6307;46.804;11.580;2023-02-04T00:16:48;-21034.09;;;6.06;100.00
12486;BME280;6307;46.804;11.580;2023-02-04T00:19:14;-21042.81;;;6.35;100.00
12486;BME280;6307;46.804;11.580;2023-02-04T00:21:41;-21034.09;;;6.06;100.00
12486;BME280;6307;46.804;11.580;2023-02-04T00:24:07;-21043.88;;;6.38;100.00
12486;BME280;6307;46.804;11.580;2023-02-04T00:26:34;-21039.50;;;6.24;100.00
12486;BME280;6307;46.804;11.580;2023-02-04T00:29:00;-21045.97;;;6.45;100.00
12486;BME280;6307;46.804;11.580;2023-02-04T00:31:26;-21043.44;;;6.37;100.00
12486;BME280;6307;46.804;11.580;2023-02-04T00:33:52;-21038.91;;;6.22;100.00
12486;BME280;6307;46.804;11.580;2023-02-04T00:36:18;-21036.81;;;6.15;100.00
12486;BME280;6307;46.804;11.580;2023-02-04T00:38:44;-21039.22;;;6.23;100.00
12486;BME280;6307;46.804;11.580;2023-02-04T00:41:10;-21047.34;;;6.50;100.00
12486;BME280;6307;46.804;11.580;2023-02-04T00:43:36;-21046.44;;;6.47;100.00
12486;BME280;6307;46.804;11.580;2023-02-04T00:46:03;-21046.28;;;6.46;100.00
12486;BME280;6307;46.804;11.580;2023-02-04T00:48:29;-21049.00;;;6.55;100.00
12486;BME280;6307;46.804;11.580;2023-02-04T00:50:55;-21050.78;;;6.61;100.00
12486;BME280;6307;46.804;11.580;2023-02-04T00:53:21;-21051.25;;;6.63;100.00
12486;BME280;6307;46.804;11.580;2023-02-04T00:55:47;-21047.94;;;6.52;100.00
12486;BME280;6307;46.804;11.580;2023-02-04T00:58:13;-21049.91;;;6.58;100.00
12486;BME280;6307;46.804;11.580;2023-02-04T01:00:39;-21053.66;;;6.71;100.00
12486;BME280;6307;46.804;11.580;2023-02-04T01:03:06;-21050.78;;;6.61;100.00
12486;BME280;6307;46.804;11.580;2023-02-04T01:05:32;-21048.38;;;6.53;100.00
12486;BME280;6307;46.804;11.580;2023-02-04T01:07:58;-21046.44;;;6.47;100.00
12486;BME280;6307;46.804;11.580;2023-02-04T01:10:24;-21049.13;;;6.56;100.00
12486;BME280;6307;46.804;11.580;2023-02-04T01:12:50;-21054.56;;;6.74;100.00
12486;BME280;6307;46.804;11.580;2023-02-04T01:15:17;-21053.94;;;6.72;100.00
12486;BME280;6307;46.804;11.580;2023-02-04T01:17:43;-21045.81;;;6.45;100.00
12486;BME280;6307;46.804;11.580;2023-02-04T01:20:09;-21053.94;;;6.72;100.00
12486;BME280;6307;46.804;11.580;2023-02-04T01:22:36;-21056.50;;;6.80;100.00
12486;BME280;6307;46.804;11.580;2023-02-04T01:25:02;-21054.72;;;6.74;100.00
12486;BME280;6307;46.804;11.580;2023-02-04T01:27:28;-21050.66;;;6.61;100.00
12486;BME280;6307;46.804;11.580;2023-02-04T01:29:54;-21052.59;;;6.67;100.00
12486;BME280;6307;46.804;11.580;2023-02-04T01:32:20;-21046.28;;;6.46;100.00
12486;BME280;6307;46.804;11.580;2023-02-04T01:34:46;-21052.16;;;6.66;100.00
12486;BME280;6307;46.804;11.580;2023-02-04T01:37:12;-21054.41;;;6.73;100.00
12486;BME280;6307;46.804;11.580;2023-02-04T01:39:39;-21053.81;;;6.71;100.00
12486;BME280;6307;46.804;11.580;2023-02-04T01:42:05;-21052.16;;;6.66;100.00
12486;BME280;6307;46.804;11.580;2023-02-04T01:44:31;-21052.75;;;6.68;100.00
12486;BME280;6307;46.804;11.580;2023-02-04T01:46:58;-21055.31;;;6.76;100.00
12486;BME280;6307;46.804;11.580;2023-02-04T01:49:24;-21053.66;;;6.71;100.00
12486;BME280;6307;46.804;11.580;2023-02-04T01:51:51;-21052.44;;;6.67;100.00
12486;BME280;6307;46.804;11.580;2023-02-04T01:54:17;-21052.75;;;6.68;100.00
12486;BME280;6307;46.804;11.580;2023-02-04T01:56:47;-21055.31;;;6.76;100.00
12486;BME280;6307;46.804;11.580;2023-02-04T01:59:16;-21056.50;;;6.80;100.00
12486;BME280;6307;46.804;11.580;2023-02-04T02:01:48;-21055.91;;;6.78;100.00
12486;BME280;6307;46.804;11.580;2023-02-04T02:04:18;-21056.06;;;6.79;100.00
12486;BME280;6307;46.804;11.580;2023-02-04T02:06:56;-21055.16;;;6.76;100.00
12486;BME280;6307;46.804;11.580;2023-02-04T02:09:28;-21055.00;;;6.75;100.00
12486;BME280;6307;46.804;11.580;2023-02-04T02:11:56;-21048.38;;;6.53;100.00
12486;BME280;6307;46.804;11.580;2023-02-04T02:14:22;-21051.69;;;6.64;100.00
12486;BME280;6307;46.804;11.580;2023-02-04T02:16:49;-21052.44;;;6.67;100.00
12486;BME280;6307;46.804;11.580;2023-02-04T02:19:21;-21052.44;;;6.67;100.00
12486;BME280;6307;46.804;11.580;2023-02-04T02:21:58;-21046.72;;;6.48;100.00
12486;BME280;6307;46.804;11.580;2023-02-04T02:24:50;-21045.69;;;6.44;100.00
12486;BME280;6307;46.804;11.580;2023-02-04T02:27:16;-21050.34;;;6.60;100.00
12486;BME280;6307;46.804;11.580;2023-02-04T02:29:43;-21052.00;;;6.65;100.00
12486;BME280;6307;46.804;11.580;2023-02-04T02:32:11;-21051.09;;;6.62;100.00
12486;BME280;6307;46.804;11.580;2023-02-04T02:34:40;-21050.19;;;6.59;100.00
12486;BME280;6307;46.804;11.580;2023-02-04T02:37:07;-21050.78;;;6.61;100.00
12486;BME280;6307;46.804;11.580;2023-02-04T02:39:36;-21050.66;;;6.61;100.00
12486;BME280;6307;46.804;11.580;2023-02-04T02:42:03;-21047.94;;;6.52;100.00
12486;BME280;6307;46.804;11.580;2023-02-04T02:44:31;-21037.72;;;6.18;100.00
12486;BME280;6307;46.804;11.580;2023-02-04T02:46:58;-21045.22;;;6.43;100.00
12486;BME280;6307;46.804;11.580;2023-02-04T02:49:25;-21049.59;;;6.57;100.00
12486;BME280;6307;46.804;11.580;2023-02-04T02:51:53;-21048.69;;;6.54;100.00
12486;BME280;6307;46.804;11.580;2023-02-04T02:54:23;-21052.16;;;6.66;100.00
12486;BME280;6307;46.804;11.580;2023-02-04T02:56:54;-21041.47;;;6.30;100.00
12486;BME280;6307;46.804;11.580;2023-02-04T02:59:22;-21041.47;;;6.30;100.00
12486;BME280;6307;46.804;11.580;2023-02-04T03:01:55;-21039.50;;;6.24;100.00
12486;BME280;6307;46.804;11.580;2023-02-04T03:04:26;-21044.78;;;6.41;100.00
12486;BME280;6307;46.804;11.580;2023-02-04T03:06:58;-21045.06;;;6.42;100.00
12486;BME280;6307;46.804;11.580;2023-02-04T03:09:26;-21046.88;;;6.48;100.00
12486;BME280;6307;46.804;11.580;2023-02-04T03:11:53;-21048.84;;;6.55;100.00
12486;BME280;6307;46.804;11.580;2023-02-04T03:14:20;-21049.44;;;6.57;100.00
12486;BME280;6307;46.804;11.580;2023-02-04T03:16:49;-21046.44;;;6.47;100.00
12486;BME280;6307;46.804;11.580;2023-02-04T03:19:18;-21051.25;;;6.63;100.00
12486;BME280;6307;46.804;11.580;2023-02-04T03:21:44;-21051.84;;;6.65;100.00
12486;BME280;6307;46.804;11.580;2023-02-04T03:24:12;-21051.53;;;6.64;100.00
12486;BME280;6307;46.804;11.580;2023-02-04T03:26:38;-21051.25;;;6.63;100.00
12486;BME280;6307;46.804;11.580;2023-02-04T03:29:09;-21049.28;;;6.56;100.00
12486;BME280;6307;46.804;11.580;2023-02-04T03:31:35;-21052.16;;;6.66;100.00
12486;BME280;6307;46.804;11.580;2023-02-04T03:34:02;-21050.34;;;6.60;100.00
12486;BME280;6307;46.804;11.580;2023-02-04T03:36:29;-21047.03;;;6.49;100.00
12486;BME280;6307;46.804;11.580;2023-02-04T03:38:55;-21052.28;;;6.66;100.00
12486;BME280;6307;46.804;11.580;2023-02-04T03:41:21;-21054.72;;;6.74;100.00
12486;BME280;6307;46.804;11.580;2023-02-04T03:43:47;-21053.50;;;6.70;100.00
12486;BME280;6307;46.804;11.580;2023-02-04T03:46:14;-21055.00;;;6.75;100.00
12486;BME280;6307;46.804;11.580;2023-02-04T03:48:40;-21051.53;;;6.64;100.00
12486;BME280;6307;46.804;11.580;2023-02-04T03:51:06;-21050.78;;;6.61;100.00
12486;BME280;6307;46.804;11.580;2023-02-04T03:53:32;-21054.56;;;6.74;100.00
12486;BME280;6307;46.804;11.580;2023-02-04T03:55:58;-21057.41;;;6.83;100.00
12486;BME280;6307;46.804;11.580;2023-02-04T03:58:24;-21056.34;;;6.80;100.00
12486;BME280;6307;46.804;11.580;2023-02-04T04:00:50;-21057.41;;;6.83;100.00
12486;BME280;6307;46.804;11.580;2023-02-04T04:03:17;-21056.97;;;6.82;100.00
12486;BME280;6307;46.804;11.580;2023-02-04T04:05:43;-21056.06;;;6.79;100.00
12486;BME280;6307;46.804;11.580;2023-02-04T04:08:09;-21055.91;;;6.78;100.00
12486;BME280;6307;46.804;11.580;2023-02-04T04:10:35;-21043.72;;;6.38;100.00
12486;BME280;6307;46.804;11.580;2023-02-04T04:13:01;-21051.69;;;6.64;100.00
12486;BME280;6307;46.804;11.580;2023-02-04T04:15:27;-21052.59;;;6.67;100.00
12486;BME280;6307;46.804;11.580;2023-02-04T04:17:54;-21053.66;;;6.71;100.00
12486;BME280;6307;46.804;11.580;2023-02-04T04:20:21;-21055.00;;;6.75;100.00
12486;BME280;6307;46.804;11.580;2023-02-04T04:22:50;-21057.09;;;6.82;100.00
12486;BME280;6307;46.804;11.580;2023-02-04T04:25:16;-21054.56;;;6.74;100.00
12486;BME280;6307;46.804;11.580;2023-02-04T04:27:42;-21050.66;;;6.61;100.00
12486;BME280;6307;46.804;11.580;2023-02-04T04:30:10;-21047.94;;;6.52;100.00
12486;BME280;6307;46.804;11.580;2023-02-04T04:32:36;-21044.63;;;6.41;100.00
12486;BME280;6307;46.804;11.580;2023-02-04T04:35:03;-21048.69;;;6.54;100.00
12486;BME280;6307;46.804;11.580;2023-02-04T04:37:29;-21052.00;;;6.65;100.00
12486;BME280;6307;46.804;11.580;2023-02-04T04:39:55;-21047.19;;;6.49;100.00
12486;BME280;6307;46.804;11.580;2023-02-04T04:42:21;-21052.16;;;6.66;100.00
12486;BME280;6307;46.804;11.580;2023-02-04T04:44:47;-21054.25;;;6.73;100.00
12486;BME280;6307;46.804;11.580;2023-02-04T04:47:13;-21043.88;;;6.38;100.00
12486;BME280;6307;46.804;11.580;2023-02-04T04:49:39;-21050.78;;;6.61;100.00
12486;BME280;6307;46.804;11.580;2023-02-04T04:52:06;-21048.69;;;6.54;100.00
12486;BME280;6307;46.804;11.580;2023-02-04T04:54:32;-21048.38;;;6.53;100.00
12486;BME280;6307;46.804;11.580;2023-02-04T04:56:58;-21050.34;;;6.60;100.00
12486;BME280;6307;46.804;11.580;2023-02-04T04:59:24;-21056.06;;;6.79;100.00
12486;BME280;6307;46.804;11.580;2023-02-04T05:01:50;-21052.16;;;6.66;100.00
12486;BME280;6307;46.804;11.580;2023-02-04T05:04:16;-21044.47;;;6.40;100.00
12486;BME280;6307;46.804;11.580;2023-02-04T05:06:42;-21048.25;;;6.53;100.00
12486;BME280;6307;46.804;11.580;2023-02-04T05:09:09;-21047.03;;;6.49;100.00
12486;BME280;6307;46.804;11.580;2023-02-04T05:11:35;-21046.59;;;6.47;100.00
12486;BME280;6307;46.804;11.580;2023-02-04T05:14:01;-21041.63;;;6.31;100.00
12486;BME280;6307;46.804;11.580;2023-02-04T05:16:27;-21043.44;;;6.37;100.00
12486;BME280;6307;46.804;11.580;2023-02-04T05:18:53;-21049.75;;;6.58;100.00
12486;BME280;6307;46.804;11.580;2023-02-04T05:21:19;-21040.41;;;6.27;100.00
12486;BME280;6307;46.804;11.580;2023-02-04T05:23:46;-21044.78;;;6.41;100.00
12486;BME280;6307;46.804;11.580;2023-02-04T05:26:12;-21043.88;;;6.38;100.00
12486;BME280;6307;46.804;11.580;2023-02-04T05:28:38;-21048.09;;;6.52;100.00
12486;BME280;6307;46.804;11.580;2023-02-04T05:31:04;-21048.25;;;6.53;100.00
12486;BME280;6307;46.804;11.580;2023-02-04T05:33:30;-21049.28;;;6.56;100.00
12486;BME280;6307;46.804;11.580;2023-02-04T05:35:56;-21052.44;;;6.67;100.00
12486;BME280;6307;46.804;11.580;2023-02-04T05:38:22;-21037.84;;;6.18;100.00
12486;BME280;6307;46.804;11.580;2023-02-04T05:40:48;-21041.47;;;6.30;100.00
12486;BME280;6307;46.804;11.580;2023-02-04T05:43:15;-21059.81;;;6.91;100.00
12486;BME280;6307;46.804;11.580;2023-02-04T05:45:41;-21057.56;;;6.84;100.00
12486;BME280;6307;46.804;11.580;2023-02-04T05:48:07;-21053.34;;;6.70;100.00
12486;BME280;6307;46.804;11.580;2023-02-04T05:50:33;-21062.53;;;7.00;100.00
12486;BME280;6307;46.804;11.580;2023-02-04T05:52:59;-21060.41;;;6.93;100.00
12486;BME280;6307;46.804;11.580;2023-02-04T05:55:25;-21049.75;;;6.58;100.00
12486;BME280;6307;46.804;11.580;2023-02-04T05:57:51;-21043.28;;;6.36;100.00
12486;BME280;6307;46.804;11.580;2023-02-04T06:00:18;-21046.59;;;6.47;100.00
12486;BME280;6307;46.804;11.580;2023-02-04T06:02:44;-21047.03;;;6.49;100.00
12486;BME280;6307;46.804;11.580;2023-02-04T06:05:10;-21047.50;;;6.50;100.00
12486;BME280;6307;46.804;11.580;2023-02-04T06:07:36;-21065.09;;;7.09;100.00
12486;BME280;6307;46.804;11.580;2023-02-04T06:10:03;-21054.84;;;6.75;100.00
12486;BME280;6307;46.804;11.580;2023-02-04T06:12:29;-21047.94;;;6.52;100.00
12486;BME280;6307;46.804;11.580;2023-02-04T06:14:55;-21056.97;;;6.82;100.00
12486;BME280;6307;46.804;11.580;2023-02-04T06:17:21;-21047.50;;;6.50;100.00
12486;BME280;6307;46.804;11.580;2023-02-04T06:19:47;-21057.41;;;6.83;100.00
12486;BME280;6307;46.804;11.580;2023-02-04T06:22:13;-21048.53;;;6.54;100.00
12486;BME280;6307;46.804;11.580;2023-02-04T06:24:40;-21059.22;;;6.89;100.00
12486;BME280;6307;46.804;11.580;2023-02-04T06:27:06;-21064.47;;;7.07;100.00
12486;BME280;6307;46.804;11.580;2023-02-04T06:29:32;-21065.22;;;7.09;95.36
12486;BME280;6307;46.804;11.580;2023-02-04T06:31:58;-21081.75;;;7.64;100.00
12486;BME280;6307;46.804;11.580;2023-02-04T06:34:24;-21075.16;;;7.42;100.00
12486;BME280;6307;46.804;11.580;2023-02-04T06:36:50;-21064.78;;;7.08;100.00
12486;BME280;6307;46.804;11.580;2023-02-04T06:39:16;-21076.66;;;7.47;90.49
12486;BME280;6307;46.804;11.580;2023-02-04T06:41:43;-21073.50;;;7.36;100.00
12486;BME280;6307;46.804;11.580;2023-02-04T06:44:09;-21070.03;;;7.25;99.89
12486;BME280;6307;46.804;11.580;2023-02-04T06:46:35;-21069.44;;;7.23;93.70
12486;BME280;6307;46.804;11.580;2023-02-04T06:49:01;-21079.81;;;7.57;82.35
12486;BME280;6307;46.804;11.580;2023-02-04T06:51:27;-21077.09;;;7.48;82.75
12486;BME280;6307;46.804;11.580;2023-02-04T06:53:54;-21086.56;;;7.80;76.69
12486;BME280;6307;46.804;11.580;2023-02-04T06:56:20;-21084.00;;;7.71;81.98
12486;BME280;6307;46.804;11.580;2023-02-04T06:58:46;-21093.47;;;8.03;68.94
12486;BME280;6307;46.804;11.580;2023-02-04T07:01:12;-21097.09;;;8.15;69.11
12486;BME280;6307;46.804;11.580;2023-02-04T07:03:38;-21112.72;;;8.67;56.25
12486;BME280;6307;46.804;11.580;2023-02-04T07:06:04;-21108.97;;;8.54;63.16
12486;BME280;6307;46.804;11.580;2023-02-04T07:08:31;-21115.41;;;8.76;53.49
12486;BME280;6307;46.804;11.580;2023-02-04T07:10:57;-21110.31;;;8.59;50.07
12486;BME280;6307;46.804;11.580;2023-02-04T07:13:24;-21119.16;;;8.88;46.70
12486;BME280;6307;46.804;11.580;2023-02-04T07:15:50;-21129.69;;;9.23;46.55
12486;BME280;6307;46.804;11.580;2023-02-04T07:18:17;-21136.13;;;9.45;43.48
12486;BME280;6307;46.804;11.580;2023-02-04T07:20:44;-21132.84;;;9.34;47.48
12486;BME280;6307;46.804;11.580;2023-02-04T07:23:10;-21133.28;;;9.35;46.62
12486;BME280;6307;46.804;11.580;2023-02-04T07:25:36;-21133.44;;;9.36;43.98
12486;BME280;6307;46.804;11.580;2023-02-04T07:28:03;-21128.19;;;9.18;43.34
12486;BME280;6307;46.804;11.580;2023-02-04T07:30:33;-21141.38;;;9.62;40.77
12486;BME280;6307;46.804;11.580;2023-02-04T07:32:59;-21140.50;;;9.59;40.55
12486;BME280;6307;46.804;11.580;2023-02-04T07:35:25;-21137.34;;;9.49;40.31
12486;BME280;6307;46.804;11.580;2023-02-04T07:37:51;-21135.09;;;9.41;41.51
12486;BME280;6307;46.804;11.580;2023-02-04T07:40:17;-21142.28;;;9.65;38.52
12486;BME280;6307;46.804;11.580;2023-02-04T07:42:43;-21140.50;;;9.59;39.49
12486;BME280;6307;46.804;11.580;2023-02-04T07:45:09;-21143.50;;;9.69;38.78
12486;BME280;6307;46.804;11.580;2023-02-04T07:47:35;-21147.25;;;9.82;40.28
12486;BME280;6307;46.804;11.580;2023-02-04T07:50:02;-21150.84;;;9.94;39.25
12486;BME280;6307;46.804;11.580;2023-02-04T07:52:29;-21154.31;;;10.05;36.66
12486;BME280;6307;46.804;11.580;2023-02-04T07:54:55;-21148.91;;;9.87;38.42
12486;BME280;6307;46.804;11.580;2023-02-04T07:57:21;-21149.94;;;9.91;36.48
12486;BME280;6307;46.804;11.580;2023-02-04T07:59:47;-21150.53;;;9.93;36.98
12486;BME280;6307;46.804;11.580;2023-02-04T08:02:13;-21155.66;;;10.10;37.19
12486;BME280;6307;46.804;11.580;2023-02-04T08:04:39;-21164.34;;;10.39;36.31
12486;BME280;6307;46.804;11.580;2023-02-04T08:07:05;-21158.34;;;10.19;35.94
12486;BME280;6307;46.804;11.580;2023-02-04T08:09:31;-21167.78;;;10.50;35.53
12486;BME280;6307;46.804;11.580;2023-02-04T08:11:58;-21155.19;;;10.08;36.05
12486;BME280;6307;46.804;11.580;2023-02-04T08:14:24;-21159.53;;;10.23;36.05
12486;BME280;6307;46.804;11.580;2023-02-04T08:16:50;-21156.69;;;10.13;34.97
12486;BME280;6307;46.804;11.580;2023-02-04T08:19:16;-21166.59;;;10.46;34.95
12486;BME280;6307;46.804;11.580;2023-02-04T08:21:45;-21164.19;;;10.38;35.91
12486;BME280;6307;46.804;11.580;2023-02-04T08:24:12;-21171.25;;;10.62;36.33
12486;BME280;6307;46.804;11.580;2023-02-04T08:26:40;-21161.50;;;10.29;35.73
12486;BME280;6307;46.804;11.580;2023-02-04T08:29:07;-21164.50;;;10.39;34.97
12486;BME280;6307;46.804;11.580;2023-02-04T08:31:33;-21171.25;;;10.62;35.91
12486;BME280;6307;46.804;11.580;2023-02-04T08:34:02;-21165.69;;;10.43;36.60
12486;BME280;6307;46.804;11.580;2023-02-04T08:36:29;-21173.03;;;10.68;36.45
12486;BME280;6307;46.804;11.580;2023-02-04T08:38:55;-21167.19;;;10.48;35.56
12486;BME280;6307;46.804;11.580;2023-02-04T08:41:21;-21162.09;;;10.31;34.98
12486;BME280;6307;46.804;11.580;2023-02-04T08:43:47;-21170.78;;;10.60;34.58
12486;BME280;6307;46.804;11.580;2023-02-04T08:46:13;-21176.94;;;10.81;35.21
12486;BME280;6307;46.804;11.580;2023-02-04T08:48:40;-21169.75;;;10.57;36.40
12486;BME280;6307;46.804;11.580;2023-02-04T08:51:06;-21179.03;;;10.88;35.10
12486;BME280;6307;46.804;11.580;2023-02-04T08:53:32;-21165.41;;;10.42;35.73
12486;BME280;6307;46.804;11.580;2023-02-04T08:55:58;-21169.91;;;10.57;32.67
12486;BME280;6307;46.804;11.580;2023-02-04T08:58:24;-21184.75;;;11.07;33.68
12486;BME280;6307;46.804;11.580;2023-02-04T09:00:50;-21171.53;;;10.63;33.41
12486;BME280;6307;46.804;11.580;2023-02-04T09:03:16;-21176.50;;;10.79;33.18
12486;BME280;6307;46.804;11.580;2023-02-04T09:05:43;-21175.13;;;10.75;33.18
12486;BME280;6307;46.804;11.580;2023-02-04T09:08:09;-21176.94;;;10.81;34.28
12486;BME280;6307;46.804;11.580;2023-02-04T09:10:35;-21178.28;;;10.85;33.04
12486;BME280;6307;46.804;11.580;2023-02-04T09:13:01;-21172.16;;;10.65;34.10
12486;BME280;6307;46.804;11.580;2023-02-04T09:15:27;-21181.00;;;10.94;32.82
12486;BME280;6307;46.804;11.580;2023-02-04T09:17:53;-21179.03;;;10.88;32.90
12486;BME280;6307;46.804;11.580;2023-02-04T09:20:28;-21179.19;;;10.88;32.90
12486;BME280;6307;46.804;11.580;2023-02-04T09:22:55;-21173.50;;;10.69;31.97
12486;BME280;6307;46.804;11.580;2023-02-04T09:25:21;-21184.44;;;11.06;30.92
12486;BME280;6307;46.804;11.580;2023-02-04T09:27:47;-21180.38;;;10.92;32.00
12486;BME280;6307;46.804;11.580;2023-02-04T09:30:13;-21189.22;;;11.22;32.03
12486;BME280;6307;46.804;11.580;2023-02-04T09:32:39;-21178.13;;;10.85;32.80
12486;BME280;6307;46.804;11.580;2023-02-04T09:35:06;-21174.41;;;10.72;32.26
12486;BME280;6307;46.804;11.580;2023-02-04T09:37:32;-21179.03;;;10.88;32.39
12486;BME280;6307;46.804;11.580;2023-02-04T09:39:58;-21175.44;;;10.76;33.24
12486;BME280;6307;46.804;11.580;2023-02-04T09:42:25;-21173.50;;;10.69;32.21
12486;BME280;6307;46.804;11.580;2023-02-04T09:44:52;-21182.50;;;10.99;31.16
12486;BME280;6307;46.804;11.580;2023-02-04T09:47:21;-21178.88;;;10.87;31.69
12486;BME280;6307;46.804;11.580;2023-02-04T09:49:49;-21178.88;;;10.87;32.47
12486;BME280;6307;46.804;11.580;2023-02-04T09:52:16;-21179.94;;;10.91;32.76
12486;BME280;6307;46.804;11.580;2023-02-04T09:54:43;-21184.13;;;11.05;30.88
12486;BME280;6307;46.804;11.580;2023-02-04T09:57:17;-21174.09;;;10.71;31.24
12486;BME280;6307;46.804;11.580;2023-02-04T09:59:45;-21187.13;;;11.15;30.76
12486;BME280;6307;46.804;11.580;2023-02-04T10:04:50;-21181.88;;;10.97;30.88
12486;BME280;6307;46.804;11.580;2023-02-04T10:07:20;-21186.09;;;11.11;31.23
12486;BME280;6307;46.804;11.580;2023-02-04T10:09:50;-21179.19;;;10.88;30.53
12486;BME280;6307;46.804;11.580;2023-02-04T10:12:18;-21184.75;;;11.07;29.43
12486;BME280;6307;46.804;11.580;2023-02-04T10:14:45;-21182.63;;;11.00;29.99
12486;BME280;6307;46.804;11.580;2023-02-04T10:17:17;-21185.94;;;11.11;30.04
12486;BME280;6307;46.804;11.580;2023-02-04T10:19:46;-21179.78;;;10.90;30.48
12486;BME280;6307;46.804;11.580;2023-02-04T10:22:20;-21182.78;;;11.00;30.06
12486;BME280;6307;46.804;11.580;2023-02-04T10:24:46;-21176.94;;;10.81;30.11
12486;BME280;6307;46.804;11.580;2023-02-04T10:27:13;-21184.75;;;11.07;30.17
12486;BME280;6307;46.804;11.580;2023-02-04T10:29:57;-21179.50;;;10.89;29.45
12486;BME280;6307;46.804;11.580;2023-02-04T10:32:29;-21187.59;;;11.16;29.89
12486;BME280;6307;46.804;11.580;2023-02-04T10:34:59;-21178.59;;;10.86;29.84
12486;BME280;6307;46.804;11.580;2023-02-04T10:37:27;-21177.25;;;10.82;30.64
12486;BME280;6307;46.804;11.580;2023-02-04T10:39:54;-21178.13;;;10.85;28.76
12486;BME280;6307;46.804;11.580;2023-02-04T10:42:26;-21180.25;;;10.92;28.67
12486;BME280;6307;46.804;11.580;2023-02-04T10:44:54;-21176.78;;;10.80;28.83
12486;BME280;6307;46.804;11.580;2023-02-04T10:47:25;-21177.38;;;10.82;29.17
12486;BME280;6307;46.804;11.580;2023-02-04T10:50:01;-21179.63;;;10.90;27.96
12486;BME280;6307;46.804;11.580;2023-02-04T10:52:41;-21175.88;;;10.77;28.38
12486;BME280;6307;46.804;11.580;2023-02-04T10:55:16;-21170.66;;;10.60;29.10
12486;BME280;6307;46.804;11.580;2023-02-04T10:57:47;-21177.53;;;10.83;28.65
12486;BME280;6307;46.804;11.580;2023-02-04T11:00:22;-21174.53;;;10.73;29.81
12486;BME280;6307;46.804;11.580;2023-02-04T11:02:58;-21181.28;;;10.95;27.18
12486;BME280;6307;46.804;11.580;2023-02-04T11:05:32;-21178.00;;;10.84;27.96
12486;BME280;6307;46.804;11.580;2023-02-04T11:08:00;-21178.13;;;10.85;27.81
12486;BME280;6307;46.804;11.580;2023-02-04T11:10:30;-21186.38;;;11.12;28.36
12486;BME280;6307;46.804;11.580;2023-02-04T11:13:05;-21177.69;;;10.83;27.22
12486;BME280;6307;46.804;11.580;2023-02-04T11:18:12;-21171.53;;;10.63;28.44
12486;BME280;6307;46.804;11.580;2023-02-04T11:20:45;-21170.66;;;10.60;26.43
12486;BME280;6307;46.804;11.580;2023-02-04T11:26:13;-21172.75;;;10.67;26.26
12486;BME280;6307;46.804;11.580;2023-02-04T11:29:06;-21172.59;;;10.66;27.53
12486;BME280;6307;46.804;11.580;2023-02-04T11:31:40;-21167.03;;;10.48;27.77
12486;BME280;6307;46.804;11.580;2023-02-04T11:39:45;-21175.13;;;10.75;26.70
12486;BME280;6307;46.804;11.580;2023-02-04T11:42:38;-21171.41;;;10.62;25.49
12486;BME280;6307;46.804;11.580;2023-02-04T11:45:20;-21171.41;;;10.62;26.36
12486;BME280;6307;46.804;11.580;2023-02-04T11:47:52;-21177.38;;;10.82;26.45
12486;BME280;6307;46.804;11.580;2023-02-04T11:50:29;-21178.28;;;10.85;26.45
12486;BME280;6307;46.804;11.580;2023-02-04T11:52:58;-21174.09;;;10.71;27.01
12486;BME280;6307;46.804;11.580;2023-02-04T11:55:30;-21179.19;;;10.88;25.81
12486;BME280;6307;46.804;11.580;2023-02-04T11:57:59;-21175.28;;;10.75;25.50
12486;BME280;6307;46.804;11.580;2023-02-04T12:00:29;-21175.75;;;10.77;24.27
12486;BME280;6307;46.804;11.580;2023-02-04T12:02:59;-21174.25;;;10.72;26.06
12486;BME280;6307;46.804;11.580;2023-02-04T12:13:28;-21188.19;;;11.18;26.62
12486;BME280;6307;46.804;11.580;2023-02-04T12:16:00;-21178.59;;;10.86;25.92
12486;BME280;6307;46.804;11.580;2023-02-04T12:18:32;-21174.41;;;10.72;26.04
12486;BME280;6307;46.804;11.580;2023-02-04T12:21:00;-21174.69;;;10.73;26.15
12486;BME280;6307;46.804;11.580;2023-02-04T12:23:28;-21178.44;;;10.86;25.87
12486;BME280;6307;46.804;11.580;2023-02-04T12:25:56;-21174.84;;;10.74;25.71
12486;BME280;6307;46.804;11.580;2023-02-04T12:28:22;-21175.28;;;10.75;25.47
12486;BME280;6307;46.804;11.580;2023-02-04T12:30:49;-21172.00;;;10.64;25.74
12486;BME280;6307;46.804;11.580;2023-02-04T12:33:15;-21175.59;;;10.76;25.41
12486;BME280;6307;46.804;11.580;2023-02-04T12:35:42;-21169.28;;;10.55;24.93
12486;BME280;6307;46.804;11.580;2023-02-04T12:38:08;-21175.44;;;10.76;25.38
12486;BME280;6307;46.804;11.580;2023-02-04T12:40:34;-21176.50;;;10.79;25.35
12486;BME280;6307;46.804;11.580;2023-02-04T12:43:01;-21179.19;;;10.88;25.79
12486;BME280;6307;46.804;11.580;2023-02-04T12:45:27;-21173.19;;;10.68;25.61
12486;BME280;6307;46.804;11.580;2023-02-04T12:47:53;-21177.69;;;10.83;25.20
12486;BME280;6307;46.804;11.580;2023-02-04T12:50:19;-21172.28;;;10.65;25.89
12486;BME280;6307;46.804;11.580;2023-02-04T12:52:53;-21183.84;;;11.04;25.36
12486;BME280;6307;46.804;11.580;2023-02-04T12:55:22;-21173.34;;;10.69;25.81
12486;BME280;6307;46.804;11.580;2023-02-04T12:57:51;-21173.66;;;10.70;26.71
12486;BME280;6307;46.804;11.580;2023-02-04T13:00:19;-21182.34;;;10.99;25.71
12486;BME280;6307;46.804;11.580;2023-02-04T13:02:46;-21177.84;;;10.84;27.12
12486;BME280;6307;46.804;11.580;2023-02-04T13:05:13;-21167.78;;;10.50;27.00
12486;BME280;6307;46.804;11.580;2023-02-04T13:07:40;-21167.94;;;10.51;26.58
12486;BME280;6307;46.804;11.580;2023-02-04T13:10:08;-21172.75;;;10.67;25.83
12486;BME280;6307;46.804;11.580;2023-02-04T13:12:34;-21170.66;;;10.60;25.87
12486;BME280;6307;46.804;11.580;2023-02-04T13:15:00;-21170.50;;;10.59;26.01